Time;durP1;ratioP1;P1;durP2;ratioP2;P2;SDS_P1;SDS_P2;PMS_P1;PMS_P2;Temp;Humidity;BMP_temperature;BMP_pressure;BME280_temperature;BME280_humidity;BME280_pressure;Samples;Min_cycle;Max_cycle;Signal;HPM_P1;HPM_P2
2023/07/19 00:01:54;;;;;;;10.40;5.80;;;;;;;;;;107756;1253;61153;-81
2023/07/19 00:04:22;;;;;;;9.00;5.60;;;;;;;;;;109909;1249;58745;-80
2023/07/19 00:06:48;;;;;;;8.80;5.50;;;;;;;;;;109939;1250;58887;-80
2023/07/19 00:09:15;;;;;;;8.90;5.40;;;;;;;;;;109917;1250;59467;-80
2023/07/19 00:11:41;;;;;;;9.60;6.40;;;;;;;;;;109973;1249;58923;-80
2023/07/19 00:14:08;;;;;;;10.30;5.60;;;;;;;;;;110042;1249;58927;-80
2023/07/19 00:16:34;;;;;;;9.20;5.20;;;;;;;;;;110025;1250;59318;-80
2023/07/19 00:19:01;;;;;;;8.60;4.90;;;;;;;;;;110017;1252;58871;-80
2023/07/19 00:21:27;;;;;;;8.20;5.00;;;;;;;;;;110039;1249;58973;-80
2023/07/19 00:23:53;;;;;;;7.40;4.50;;;;;;;;;;109994;1252;59017;-80
2023/07/19 00:26:20;;;;;;;6.60;4.60;;;;;;;;;;110041;1248;58821;-80
2023/07/19 00:28:46;;;;;;;8.40;5.50;;;;;;;;;;110090;1251;59259;-80
2023/07/19 00:31:13;;;;;;;7.90;4.90;;;;;;;;;;110002;1250;58858;-80
2023/07/19 00:33:39;;;;;;;9.20;5.30;;;;;;;;;;109934;1250;58888;-80
2023/07/19 00:36:05;;;;;;;11.90;5.60;;;;;;;;;;109944;1251;59149;-80
2023/07/19 00:38:32;;;;;;;9.30;5.70;;;;;;;;;;109954;1251;59208;-80
2023/07/19 00:40:58;;;;;;;8.50;5.80;;;;;;;;;;109910;1249;58847;-79
2023/07/19 00:43:24;;;;;;;9.40;6.10;;;;;;;;;;108456;1253;61240;-80
2023/07/19 00:45:52;;;;;;;11.60;5.70;;;;;;;;;;107410;1254;61174;-80
2023/07/19 00:48:18;;;;;;;7.90;5.70;;;;;;;;;;107380;1249;61338;-81
2023/07/19 00:50:45;;;;;;;10.20;6.40;;;;;;;;;;107353;1253;61317;-80
2023/07/19 00:53:11;;;;;;;8.50;5.00;;;;;;;;;;107353;1250;61412;-79
2023/07/19 00:55:38;;;;;;;12.50;6.00;;;;;;;;;;108074;1251;61314;-80
2023/07/19 00:58:04;;;;;;;10.60;5.00;;;;;;;;;;109953;1249;59310;-80
2023/07/19 01:00:31;;;;;;;8.10;4.60;;;;;;;;;;109970;1251;59112;-80
2023/07/19 01:02:57;;;;;;;10.70;4.30;;;;;;;;;;109943;1251;59081;-81
2023/07/19 01:05:24;;;;;;;7.40;4.40;;;;;;;;;;109913;1251;59269;-80
2023/07/19 01:07:50;;;;;;;9.60;5.60;;;;;;;;;;108476;1251;61203;-80
2023/07/19 01:10:17;;;;;;;7.90;4.50;;;;;;;;;;107386;1252;61260;-81
2023/07/19 01:12:43;;;;;;;9.70;4.80;;;;;;;;;;109035;1251;61208;-80
2023/07/19 01:15:09;;;;;;;9.50;5.20;;;;;;;;;;108941;1252;61318;-79
2023/07/19 01:17:36;;;;;;;7.70;4.40;;;;;;;;;;107505;1250;63694;-80
2023/07/19 01:20:03;;;;;;;7.40;4.90;;;;;;;;;;107478;1253;61238;-80
2023/07/19 01:22:31;;;;;;;9.40;5.60;;;;;;;;;;107539;1252;61324;-80
2023/07/19 01:24:57;;;;;;;11.30;5.80;;;;;;;;;;107549;1251;61160;-80
2023/07/19 01:27:24;;;;;;;7.80;4.70;;;;;;;;;;107492;1253;61179;-80
2023/07/19 01:29:50;;;;;;;7.40;5.40;;;;;;;;;;107436;1253;61345;-80
2023/07/19 01:32:16;;;;;;;10.90;5.50;;;;;;;;;;106883;1254;61348;-80
2023/07/19 01:34:43;;;;;;;9.10;4.80;;;;;;;;;;107465;1255;61230;-79
2023/07/19 01:37:09;;;;;;;7.80;5.40;;;;;;;;;;107366;1254;61359;-79
2023/07/19 01:39:36;;;;;;;7.50;5.50;;;;;;;;;;107431;1253;61299;-80
2023/07/19 01:42:02;;;;;;;11.40;5.20;;;;;;;;;;107425;1251;61448;-79
2023/07/19 01:44:28;;;;;;;9.30;5.20;;;;;;;;;;107439;1251;59303;-80
2023/07/19 01:46:55;;;;;;;12.40;5.20;;;;;;;;;;107454;1254;61349;-80
2023/07/19 01:49:21;;;;;;;7.70;5.20;;;;;;;;;;107445;1251;61164;-81
2023/07/19 01:51:48;;;;;;;11.90;6.10;;;;;;;;;;107395;1251;61217;-80
2023/07/19 01:54:14;;;;;;;7.50;5.90;;;;;;;;;;107399;1251;61270;-80
2023/07/19 01:56:41;;;;;;;9.60;4.80;;;;;;;;;;107556;1251;61261;-80
2023/07/19 01:59:08;;;;;;;10.20;4.80;;;;;;;;;;107406;1251;61307;-80
2023/07/19 02:01:34;;;;;;;11.00;6.20;;;;;;;;;;107423;1251;61275;-81
2023/07/19 02:04:00;;;;;;;7.90;5.20;;;;;;;;;;107448;1252;61255;-80
2023/07/19 02:06:27;;;;;;;11.00;5.70;;;;;;;;;;107400;1253;61225;-81
2023/07/19 02:08:53;;;;;;;8.70;4.90;;;;;;;;;;107361;1249;61344;-81
2023/07/19 02:11:20;;;;;;;11.00;5.40;;;;;;;;;;107410;1251;61362;-80
2023/07/19 02:13:46;;;;;;;7.30;4.90;;;;;;;;;;107520;1251;61381;-81
2023/07/19 02:16:15;;;;;;;11.40;4.70;;;;;;;;;;107435;1251;61262;-80
2023/07/19 02:18:41;;;;;;;9.00;5.10;;;;;;;;;;107538;1252;61292;-82
2023/07/19 02:21:07;;;;;;;10.90;5.10;;;;;;;;;;107573;1252;61322;-80
2023/07/19 02:23:34;;;;;;;9.20;4.80;;;;;;;;;;107536;1249;61242;-81
2023/07/19 02:26:00;;;;;;;12.40;5.70;;;;;;;;;;107531;1253;61339;-80
2023/07/19 02:28:26;;;;;;;9.10;5.00;;;;;;;;;;107489;1249;61241;-80
2023/07/19 02:30:53;;;;;;;10.10;4.30;;;;;;;;;;107553;1252;61141;-80
2023/07/19 02:33:20;;;;;;;9.20;5.70;;;;;;;;;;107443;1249;61281;-80
2023/07/19 02:35:51;;;;;;;8.90;5.30;;;;;;;;;;107458;1251;61221;-80
2023/07/19 02:38:18;;;;;;;7.80;5.30;;;;;;;;;;107468;1250;60766;-80
2023/07/19 02:40:44;;;;;;;11.30;5.50;;;;;;;;;;107381;1251;61195;-81
2023/07/19 02:43:11;;;;;;;9.40;5.70;;;;;;;;;;107953;1250;61207;-80
2023/07/19 02:45:37;;;;;;;13.70;5.80;;;;;;;;;;109954;1250;59120;-80
2023/07/19 02:48:04;;;;;;;9.00;5.80;;;;;;;;;;109948;1251;58825;-81
2023/07/19 02:50:30;;;;;;;10.50;7.20;;;;;;;;;;109941;1251;58875;-82
2023/07/19 02:52:57;;;;;;;9.40;5.30;;;;;;;;;;109930;1250;58846;-80
2023/07/19 02:55:23;;;;;;;10.20;4.50;;;;;;;;;;109916;1249;58941;-80
2023/07/19 02:57:50;;;;;;;8.90;5.60;;;;;;;;;;109924;1251;58902;-81
2023/07/19 03:00:17;;;;;;;8.80;5.20;;;;;;;;;;109941;1250;59026;-82
2023/07/19 03:02:43;;;;;;;8.60;5.80;;;;;;;;;;109927;1250;59036;-80
2023/07/19 03:05:10;;;;;;;8.50;4.90;;;;;;;;;;109935;1250;58831;-81
2023/07/19 03:07:38;;;;;;;7.40;5.30;;;;;;;;;;108096;1249;61462;-80
2023/07/19 03:10:04;;;;;;;8.70;5.80;;;;;;;;;;107350;1251;61145;-81
2023/07/19 03:12:31;;;;;;;7.30;5.30;;;;;;;;;;107677;1251;61274;-80
2023/07/19 03:14:57;;;;;;;10.20;5.40;;;;;;;;;;109937;1248;58939;-79
2023/07/19 03:17:23;;;;;;;11.80;5.30;;;;;;;;;;110061;1250;59279;-81
2023/07/19 03:19:50;;;;;;;8.90;4.80;;;;;;;;;;110048;1248;59063;-80
2023/07/19 03:22:16;;;;;;;7.70;4.70;;;;;;;;;;110109;1248;59146;-81
2023/07/19 03:24:43;;;;;;;9.20;5.40;;;;;;;;;;110062;1249;59309;-81
2023/07/19 03:27:09;;;;;;;13.60;7.00;;;;;;;;;;110081;1249;58920;-80
2023/07/19 03:29:36;;;;;;;9.80;5.80;;;;;;;;;;108342;1251;61321;-81
2023/07/19 03:32:02;;;;;;;7.90;5.20;;;;;;;;;;107514;1251;61238;-80
2023/07/19 03:34:29;;;;;;;6.50;4.70;;;;;;;;;;107517;1250;61343;-80
2023/07/19 03:36:55;;;;;;;9.60;5.00;;;;;;;;;;107501;1249;61200;-80
2023/07/19 03:39:21;;;;;;;10.00;5.00;;;;;;;;;;107566;1249;61347;-80
2023/07/19 03:41:48;;;;;;;9.20;5.10;;;;;;;;;;107522;1250;61340;-80
2023/07/19 03:44:14;;;;;;;10.80;5.40;;;;;;;;;;107471;1250;62391;-80
2023/07/19 03:46:40;;;;;;;9.90;5.90;;;;;;;;;;107509;1251;61384;-80
2023/07/19 03:49:07;;;;;;;13.10;6.80;;;;;;;;;;107531;1250;61326;-80
2023/07/19 03:51:33;;;;;;;13.10;5.60;;;;;;;;;;107548;1253;61323;-79
2023/07/19 03:54:00;;;;;;;13.00;7.10;;;;;;;;;;107500;1252;61433;-80
2023/07/19 03:56:26;;;;;;;11.00;8.30;;;;;;;;;;107525;1250;61346;-80
2023/07/19 03:58:52;;;;;;;9.40;5.20;;;;;;;;;;107525;1251;62386;-80
2023/07/19 04:01:19;;;;;;;13.10;6.40;;;;;;;;;;107431;1251;61334;-80
2023/07/19 04:03:45;;;;;;;9.00;5.10;;;;;;;;;;106870;1250;61345;-81
2023/07/19 04:06:11;;;;;;;8.40;5.20;;;;;;;;;;107474;1251;61380;-80
2023/07/19 04:08:38;;;;;;;7.10;4.80;;;;;;;;;;107449;1250;61231;-81
2023/07/19 04:11:04;;;;;;;12.50;5.90;;;;;;;;;;107532;1250;61324;-80
2023/07/19 04:13:31;;;;;;;9.20;5.60;;;;;;;;;;107454;1250;61733;-80
2023/07/19 04:15:57;;;;;;;11.60;5.70;;;;;;;;;;107493;1248;61432;-80
2023/07/19 04:18:24;;;;;;;9.80;6.60;;;;;;;;;;107582;1250;61355;-80
2023/07/19 04:20:54;;;;;;;10.00;6.10;;;;;;;;;;107509;1253;61279;-80
2023/07/19 04:23:21;;;;;;;10.30;6.30;;;;;;;;;;107469;1250;61211;-80
2023/07/19 04:25:48;;;;;;;7.60;6.30;;;;;;;;;;107541;1251;61295;-80
2023/07/19 04:28:14;;;;;;;11.70;6.00;;;;;;;;;;107565;1249;61280;-80
2023/07/19 04:30:41;;;;;;;9.20;5.90;;;;;;;;;;107503;1252;61145;-80
2023/07/19 04:33:08;;;;;;;9.20;6.30;;;;;;;;;;107422;1251;61212;-80
2023/07/19 04:35:34;;;;;;;6.90;5.50;;;;;;;;;;107342;1249;61336;-81
2023/07/19 04:38:00;;;;;;;9.70;6.70;;;;;;;;;;107403;1249;61091;-80
2023/07/19 04:40:27;;;;;;;11.60;7.00;;;;;;;;;;107402;1249;61318;-80
2023/07/19 04:42:53;;;;;;;10.40;5.90;;;;;;;;;;107387;1250;61355;-81
2023/07/19 04:45:20;;;;;;;14.90;6.70;;;;;;;;;;107382;1249;61336;-80
2023/07/19 04:47:46;;;;;;;9.90;5.40;;;;;;;;;;107374;1249;61271;-80
2023/07/19 04:50:13;;;;;;;8.20;5.50;;;;;;;;;;108248;1249;61265;-80
2023/07/19 04:52:40;;;;;;;10.20;6.40;;;;;;;;;;107396;1250;61221;-81
2023/07/19 04:55:06;;;;;;;10.20;6.20;;;;;;;;;;107490;1252;61211;-80
2023/07/19 04:57:33;;;;;;;10.30;6.00;;;;;;;;;;107623;1247;61479;-80
2023/07/19 04:59:59;;;;;;;8.90;5.60;;;;;;;;;;107619;1249;61219;-80
2023/07/19 05:02:25;;;;;;;9.60;5.50;;;;;;;;;;107542;1248;61273;-80
2023/07/19 05:04:53;;;;;;;9.80;6.90;;;;;;;;;;107596;1248;61099;-80
2023/07/19 05:07:19;;;;;;;9.90;5.60;;;;;;;;;;107575;1248;61262;-81
2023/07/19 05:09:45;;;;;;;9.80;6.30;;;;;;;;;;107547;1248;61232;-81
2023/07/19 05:12:12;;;;;;;9.90;5.90;;;;;;;;;;107549;1248;61295;-81
2023/07/19 05:14:38;;;;;;;7.90;6.10;;;;;;;;;;107586;1251;61366;-81
2023/07/19 05:17:04;;;;;;;10.60;7.30;;;;;;;;;;107595;1248;61321;-80
2023/07/19 05:19:31;;;;;;;15.00;7.20;;;;;;;;;;107503;1249;61533;-80
2023/07/19 05:21:57;;;;;;;10.90;7.10;;;;;;;;;;107482;1248;61329;-81
2023/07/19 05:24:24;;;;;;;11.40;6.70;;;;;;;;;;107520;1249;61260;-80
2023/07/19 05:26:51;;;;;;;13.80;7.70;;;;;;;;;;107541;1250;61154;-82
2023/07/19 05:29:17;;;;;;;11.70;6.80;;;;;;;;;;107613;1248;61251;-82
2023/07/19 05:31:43;;;;;;;17.30;9.70;;;;;;;;;;107544;1249;59602;-83
2023/07/19 05:34:10;;;;;;;15.30;8.80;;;;;;;;;;107362;1250;61291;-81
2023/07/19 05:36:37;;;;;;;11.60;7.40;;;;;;;;;;107428;1249;61366;-81
2023/07/19 05:39:04;;;;;;;12.30;6.40;;;;;;;;;;107510;1250;61191;-81
2023/07/19 05:41:30;;;;;;;13.80;7.00;;;;;;;;;;107561;1248;61157;-81
2023/07/19 05:43:57;;;;;;;13.30;7.50;;;;;;;;;;107706;1249;61235;-81
2023/07/19 05:46:23;;;;;;;8.80;6.40;;;;;;;;;;107769;1249;61334;-82
2023/07/19 05:48:50;;;;;;;9.10;6.80;;;;;;;;;;107508;1250;61339;-81
2023/07/19 05:51:16;;;;;;;10.50;6.70;;;;;;;;;;107465;1249;59575;-81
2023/07/19 05:53:43;;;;;;;8.00;5.70;;;;;;;;;;107453;1248;61165;-81
2023/07/19 05:56:10;;;;;;;10.40;4.70;;;;;;;;;;107481;1249;61125;-81
2023/07/19 05:58:37;;;;;;;7.30;4.90;;;;;;;;;;107566;1249;61250;-81
2023/07/19 06:01:04;;;;;;;10.70;6.10;;;;;;;;;;107509;1249;61376;-80
2023/07/19 06:03:31;;;;;;;12.20;6.20;;;;;;;;;;107624;1250;61214;-81
2023/07/19 06:05:57;;;;;;;9.40;5.80;;;;;;;;;;107565;1252;61246;-81
2023/07/19 06:08:24;;;;;;;9.80;5.30;;;;;;;;;;107814;1250;61232;-82
2023/07/19 06:10:51;;;;;;;14.80;5.70;;;;;;;;;;107640;1250;61183;-82
2023/07/19 06:13:18;;;;;;;12.70;5.70;;;;;;;;;;107548;1252;61350;-82
2023/07/19 06:15:44;;;;;;;11.00;5.40;;;;;;;;;;107704;1250;61394;-81
2023/07/19 06:18:10;;;;;;;13.00;6.50;;;;;;;;;;107812;1250;61337;-82
2023/07/19 06:20:37;;;;;;;12.20;5.70;;;;;;;;;;108374;1250;60066;-81
2023/07/19 06:23:04;;;;;;;11.00;5.80;;;;;;;;;;107827;1250;61248;-82
2023/07/19 06:25:31;;;;;;;10.60;6.10;;;;;;;;;;107720;1252;61286;-82
2023/07/19 06:27:57;;;;;;;9.90;5.80;;;;;;;;;;107803;1249;61202;-81
2023/07/19 06:30:23;;;;;;;10.50;5.70;;;;;;;;;;107763;1248;61344;-80
2023/07/19 06:32:50;;;;;;;7.40;4.80;;;;;;;;;;107738;1249;61249;-80
2023/07/19 06:35:16;;;;;;;22.50;12.10;;;;;;;;;;107794;1253;61264;-81
2023/07/19 06:37:43;;;;;;;10.00;6.80;;;;;;;;;;107787;1250;61343;-81
2023/07/19 06:40:09;;;;;;;9.10;5.70;;;;;;;;;;107723;1250;61241;-80
2023/07/19 06:42:36;;;;;;;9.50;5.00;;;;;;;;;;107847;1251;61264;-80
2023/07/19 06:45:03;;;;;;;11.50;5.30;;;;;;;;;;107680;1250;61278;-81
2023/07/19 06:47:30;;;;;;;9.30;4.60;;;;;;;;;;107922;1249;61286;-82
2023/07/19 06:49:56;;;;;;;7.90;4.00;;;;;;;;;;107696;1251;61366;-81
2023/07/19 06:52:23;;;;;;;8.00;5.00;;;;;;;;;;107845;1249;61138;-81
2023/07/19 06:54:50;;;;;;;7.50;5.00;;;;;;;;;;108308;1249;59920;-80
2023/07/19 06:57:16;;;;;;;8.60;4.90;;;;;;;;;;109982;1249;59307;-81
2023/07/19 06:59:43;;;;;;;8.60;4.30;;;;;;;;;;108821;1249;61270;-81
2023/07/19 07:02:09;;;;;;;11.10;4.90;;;;;;;;;;107835;1252;61221;-81
2023/07/19 07:04:35;;;;;;;6.40;4.40;;;;;;;;;;107863;1249;61243;-80
2023/07/19 07:07:02;;;;;;;10.50;4.70;;;;;;;;;;108057;1250;61239;-80
2023/07/19 07:09:28;;;;;;;10.60;5.40;;;;;;;;;;107641;1250;150316;-81
2023/07/19 07:11:55;;;;;;;10.20;4.70;;;;;;;;;;107987;1251;61239;-81
2023/07/19 07:14:22;;;;;;;7.40;5.00;;;;;;;;;;107827;1250;61226;-80
2023/07/19 07:16:49;;;;;;;7.90;4.00;;;;;;;;;;108321;1248;61197;-81
2023/07/19 07:19:15;;;;;;;5.70;3.90;;;;;;;;;;108130;1249;60830;-80
2023/07/19 07:21:41;;;;;;;6.40;4.40;;;;;;;;;;108374;1250;61091;-81
2023/07/19 07:24:08;;;;;;;7.20;4.00;;;;;;;;;;108627;1249;61410;-81
2023/07/19 07:26:34;;;;;;;8.00;4.70;;;;;;;;;;108370;1249;61293;-82
2023/07/19 07:29:00;;;;;;;6.80;4.40;;;;;;;;;;108214;1252;61623;-80
2023/07/19 07:31:27;;;;;;;9.60;4.30;;;;;;;;;;107829;1250;59954;-80
2023/07/19 07:33:53;;;;;;;5.30;4.00;;;;;;;;;;107866;1252;61286;-81
2023/07/19 07:36:20;;;;;;;5.70;4.40;;;;;;;;;;107911;1250;61232;-81
2023/07/19 07:38:48;;;;;;;9.30;4.70;;;;;;;;;;107913;1252;61335;-82
2023/07/19 07:41:14;;;;;;;8.10;4.80;;;;;;;;;;107985;1251;61235;-81
2023/07/19 07:43:40;;;;;;;13.50;5.00;;;;;;;;;;108177;1248;59268;-80
2023/07/19 07:46:07;;;;;;;8.30;4.10;;;;;;;;;;108035;1250;61232;-80
2023/07/19 07:48:33;;;;;;;7.60;4.20;;;;;;;;;;107836;1249;61217;-82
2023/07/19 07:50:59;;;;;;;5.80;4.10;;;;;;;;;;107957;1250;59280;-81
2023/07/19 07:53:26;;;;;;;8.10;4.80;;;;;;;;;;107921;1250;61129;-80
2023/07/19 07:55:53;;;;;;;8.90;5.00;;;;;;;;;;107915;1249;61319;-80
2023/07/19 07:58:20;;;;;;;7.10;4.60;;;;;;;;;;107902;1252;61166;-81
2023/07/19 08:00:46;;;;;;;9.30;5.30;;;;;;;;;;107743;1249;61419;-80
2023/07/19 08:03:13;;;;;;;10.10;4.70;;;;;;;;;;107726;1249;61191;-82
2023/07/19 08:05:40;;;;;;;14.70;4.70;;;;;;;;;;107700;1249;59465;-82
2023/07/19 08:08:06;;;;;;;9.90;5.30;;;;;;;;;;107660;1249;61245;-82
2023/07/19 08:10:34;;;;;;;5.30;4.20;;;;;;;;;;107713;1250;61340;-82
2023/07/19 08:13:00;;;;;;;9.80;4.40;;;;;;;;;;107659;1248;61401;-81
2023/07/19 08:15:26;;;;;;;7.40;3.80;;;;;;;;;;107612;1250;61349;-82
2023/07/19 08:17:53;;;;;;;4.80;3.80;;;;;;;;;;107778;1249;61318;-82
2023/07/19 08:20:19;;;;;;;4.10;3.20;;;;;;;;;;107647;1250;61270;-82
2023/07/19 08:22:46;;;;;;;5.80;3.50;;;;;;;;;;107618;1249;61273;-82
2023/07/19 08:25:12;;;;;;;7.90;3.50;;;;;;;;;;107731;1250;61213;-82
2023/07/19 08:27:39;;;;;;;7.70;3.80;;;;;;;;;;107748;1252;61238;-82
2023/07/19 08:30:09;;;;;;;5.20;4.00;;;;;;;;;;107724;1250;61280;-82
2023/07/19 08:32:35;;;;;;;8.90;5.90;;;;;;;;;;107424;1252;61249;-82
2023/07/19 08:35:01;;;;;;;10.70;5.20;;;;;;;;;;107371;1249;61151;-83
2023/07/19 08:37:28;;;;;;;7.90;4.00;;;;;;;;;;107562;1250;61347;-83
2023/07/19 08:39:55;;;;;;;6.00;3.80;;;;;;;;;;107455;1250;61353;-82
2023/07/19 08:42:21;;;;;;;8.60;4.00;;;;;;;;;;107348;1249;61246;-81
2023/07/19 08:44:48;;;;;;;5.10;3.80;;;;;;;;;;107322;1252;61933;-83
2023/07/19 08:47:14;;;;;;;9.40;4.60;;;;;;;;;;107644;1249;61236;-81
2023/07/19 08:49:41;;;;;;;10.20;4.80;;;;;;;;;;107452;1253;61234;-81
2023/07/19 08:52:07;;;;;;;9.60;4.30;;;;;;;;;;107498;1252;61119;-82
2023/07/19 08:54:34;;;;;;;6.70;3.90;;;;;;;;;;107339;1248;61231;-81
2023/07/19 08:57:03;;;;;;;10.10;5.20;;;;;;;;;;107527;1248;61299;-83
2023/07/19 08:59:30;;;;;;;7.20;4.50;;;;;;;;;;107562;1249;61209;-81
2023/07/19 09:01:57;;;;;;;6.70;4.20;;;;;;;;;;107543;1251;61351;-81
2023/07/19 09:04:23;;;;;;;6.10;4.30;;;;;;;;;;107401;1252;63462;-80
2023/07/19 09:06:50;;;;;;;7.60;4.10;;;;;;;;;;107523;1251;59498;-81
2023/07/19 09:09:17;;;;;;;8.70;4.90;;;;;;;;;;107420;1248;61334;-80
2023/07/19 09:11:47;;;;;;;8.70;4.70;;;;;;;;;;107297;1250;61922;-80
2023/07/19 09:14:13;;;;;;;8.20;4.40;;;;;;;;;;107310;1249;61222;-82
2023/07/19 09:16:40;;;;;;;9.70;4.00;;;;;;;;;;107532;1249;61280;-80
2023/07/19 09:19:07;;;;;;;8.70;4.10;;;;;;;;;;107490;1249;61080;-82
2023/07/19 09:21:38;;;;;;;10.20;4.20;;;;;;;;;;107404;1249;61134;-82
2023/07/19 09:24:05;;;;;;;7.70;4.10;;;;;;;;;;107365;1250;61233;-82
2023/07/19 09:26:57;;;;;;;9.70;4.10;;;;;;;;;;107523;1249;61728;-82
2023/07/19 09:29:27;;;;;;;5.40;3.90;;;;;;;;;;107338;1250;61299;-81
2023/07/19 09:31:57;;;;;;;10.60;4.70;;;;;;;;;;107494;1249;61338;-82
2023/07/19 09:34:27;;;;;;;6.60;3.90;;;;;;;;;;107435;1249;61074;-82
2023/07/19 09:36:54;;;;;;;8.60;4.00;;;;;;;;;;107562;1252;61212;-82
2023/07/19 09:39:21;;;;;;;10.80;5.00;;;;;;;;;;107358;1248;61078;-83
2023/07/19 09:41:47;;;;;;;7.50;4.30;;;;;;;;;;107424;1252;61273;-83
2023/07/19 09:44:15;;;;;;;9.60;5.30;;;;;;;;;;107385;1249;61240;-81
2023/07/19 09:46:45;;;;;;;7.60;4.30;;;;;;;;;;107522;1250;61544;-82
2023/07/19 09:49:12;;;;;;;7.20;3.80;;;;;;;;;;107496;1248;61324;-83
2023/07/19 09:51:38;;;;;;;5.40;3.70;;;;;;;;;;107367;1250;61280;-82
2023/07/19 09:54:06;;;;;;;7.50;4.20;;;;;;;;;;107479;1249;61354;-82
2023/07/19 09:56:33;;;;;;;10.40;3.90;;;;;;;;;;107434;1253;61336;-82
2023/07/19 09:59:00;;;;;;;9.70;4.60;;;;;;;;;;107373;1249;61136;-83
2023/07/19 10:01:26;;;;;;;9.80;4.40;;;;;;;;;;107357;1250;61326;-82
2023/07/19 10:03:52;;;;;;;9.40;4.60;;;;;;;;;;107488;1250;61197;-82
2023/07/19 10:06:19;;;;;;;6.10;3.50;;;;;;;;;;107709;1250;62255;-83
2023/07/19 10:08:45;;;;;;;8.30;3.90;;;;;;;;;;107676;1248;59972;-83
2023/07/19 10:11:21;;;;;;;6.00;3.40;;;;;;;;;;107761;1247;61355;-84
2023/07/19 10:13:56;;;;;;;7.60;4.30;;;;;;;;;;107455;1251;61227;-82
2023/07/19 10:16:24;;;;;;;6.40;3.70;;;;;;;;;;107997;1249;61253;-83
2023/07/19 10:18:50;;;;;;;;;;;;;;;;;;107387;1250;61223;-82
2023/07/19 10:21:18;;;;;;;7.10;4.00;;;;;;;;;;107373;1253;61212;-84
2023/07/19 10:23:45;;;;;;;6.40;3.60;;;;;;;;;;107469;1250;61737;-82
2023/07/19 10:26:11;;;;;;;6.80;3.50;;;;;;;;;;107501;1250;61215;-82
2023/07/19 10:28:38;;;;;;;7.40;4.00;;;;;;;;;;107645;1251;61126;-82
2023/07/19 10:31:06;;;;;;;10.10;3.70;;;;;;;;;;107372;1251;62426;-83
2023/07/19 10:33:34;;;;;;;6.40;4.00;;;;;;;;;;107706;1253;61221;-83
2023/07/19 10:36:00;;;;;;;;;;;;;;;;;;107523;1251;61266;-83
2023/07/19 10:38:27;;;;;;;7.30;4.10;;;;;;;;;;107864;1250;61241;-83
2023/07/19 10:41:00;;;;;;;8.40;3.90;;;;;;;;;;107349;1250;61842;-83
2023/07/19 10:43:28;;;;;;;7.00;3.70;;;;;;;;;;107492;1253;61321;-82
2023/07/19 10:45:54;;;;;;;8.60;4.20;;;;;;;;;;107803;1250;61324;-83
2023/07/19 10:48:24;;;;;;;6.00;3.60;;;;;;;;;;107613;1253;61231;-83
2023/07/19 10:50:51;;;;;;;8.60;3.80;;;;;;;;;;107581;1250;61144;-84
2023/07/19 10:53:17;;;;;;;8.20;4.20;;;;;;;;;;107516;1250;61154;-84
2023/07/19 10:55:45;;;;;;;7.60;4.30;;;;;;;;;;107525;1250;61330;-84
2023/07/19 10:58:11;;;;;;;5.50;4.20;;;;;;;;;;107840;1250;61158;-83
2023/07/19 11:00:38;;;;;;;8.60;4.10;;;;;;;;;;107938;1253;61279;-83
2023/07/19 11:03:05;;;;;;;7.40;4.30;;;;;;;;;;107989;1249;61122;-82
2023/07/19 11:05:32;;;;;;;;;;;;;;;;;;109843;1249;59128;-82
2023/07/19 11:07:58;;;;;;;5.20;3.40;;;;;;;;;;109788;1249;59081;-83
2023/07/19 11:10:25;;;;;;;8.50;5.50;;;;;;;;;;108790;1250;59205;-84
2023/07/19 11:12:52;;;;;;;6.70;3.80;;;;;;;;;;107509;1250;61261;-82
2023/07/19 11:15:18;;;;;;;9.00;4.10;;;;;;;;;;107562;1249;61246;-83
2023/07/19 11:17:44;;;;;;;12.20;5.30;;;;;;;;;;107663;1250;61292;-82
2023/07/19 11:20:12;;;;;;;8.10;4.50;;;;;;;;;;107574;1250;61336;-82
2023/07/19 11:22:38;;;;;;;;;;;;;;;;;;107721;1250;61187;-84
2023/07/19 11:25:08;;;;;;;8.70;3.80;;;;;;;;;;107854;1253;59508;-84
2023/07/19 11:27:35;;;;;;;8.50;3.70;;;;;;;;;;108025;1253;62179;-83
2023/07/19 11:30:02;;;;;;;6.90;4.00;;;;;;;;;;107829;1250;61271;-82
2023/07/19 11:32:28;;;;;;;10.20;4.20;;;;;;;;;;107666;1250;61249;-83
2023/07/19 11:34:56;;;;;;;6.40;4.20;;;;;;;;;;107692;1249;61193;-84
2023/07/19 11:37:27;;;;;;;10.60;5.00;;;;;;;;;;107740;1253;61110;-82
2023/07/19 11:39:53;;;;;;;7.20;4.60;;;;;;;;;;107573;1249;61239;-83
2023/07/19 11:42:38;;;;;;;6.70;4.20;;;;;;;;;;107513;1249;61253;-83
2023/07/19 11:45:25;;;;;;;8.50;4.40;;;;;;;;;;107494;1249;61338;-84
2023/07/19 11:47:54;;;;;;;7.30;4.10;;;;;;;;;;107768;1253;61350;-83
2023/07/19 11:50:21;;;;;;;10.20;4.20;;;;;;;;;;107551;1249;61167;-85
2023/07/19 11:52:48;;;;;;;8.20;4.30;;;;;;;;;;107506;1249;61109;-81
2023/07/19 11:55:15;;;;;;;6.80;3.80;;;;;;;;;;107426;1250;61235;-81
2023/07/19 11:57:41;;;;;;;8.90;4.60;;;;;;;;;;107582;1249;59545;-82
2023/07/19 12:00:08;;;;;;;7.70;3.80;;;;;;;;;;107516;1253;61175;-85
2023/07/19 12:02:35;;;;;;;5.40;3.90;;;;;;;;;;107468;1250;61215;-85
2023/07/19 12:05:04;;;;;;;6.20;4.20;;;;;;;;;;107516;1250;61233;-85
2023/07/19 12:07:31;;;;;;;9.10;4.30;;;;;;;;;;107668;1250;61249;-85
2023/07/19 12:09:58;;;;;;;10.70;3.70;;;;;;;;;;107447;1250;59452;-85
2023/07/19 12:12:25;;;;;;;7.60;3.90;;;;;;;;;;107632;1250;59292;-85
2023/07/19 12:14:51;;;;;;;8.90;3.60;;;;;;;;;;107639;1249;61243;-85
2023/07/19 12:17:18;;;;;;;6.10;3.60;;;;;;;;;;107731;1249;61443;-85
2023/07/19 12:19:44;;;;;;;10.80;3.40;;;;;;;;;;107535;1250;61237;-85
2023/07/19 12:22:10;;;;;;;16.00;4.10;;;;;;;;;;107500;1249;61398;-82
2023/07/19 12:24:37;;;;;;;9.30;4.50;;;;;;;;;;107544;1251;61209;-85
2023/07/19 12:27:03;;;;;;;8.10;3.80;;;;;;;;;;107811;1254;61112;-85
2023/07/19 12:29:30;;;;;;;9.20;3.60;;;;;;;;;;107526;1250;61553;-82
2023/07/19 12:31:56;;;;;;;5.60;3.60;;;;;;;;;;107484;1251;61221;-86
2023/07/19 12:34:22;;;;;;;7.50;3.30;;;;;;;;;;107457;1249;61225;-83
2023/07/19 12:36:50;;;;;;;6.90;3.70;;;;;;;;;;107867;1253;59537;-83
2023/07/19 12:39:18;;;;;;;7.10;3.70;;;;;;;;;;107732;1249;59685;-82
2023/07/19 12:41:45;;;;;;;7.10;3.40;;;;;;;;;;107435;1250;61257;-83
2023/07/19 12:44:11;;;;;;;5.40;3.20;;;;;;;;;;107372;1250;61103;-83
2023/07/19 12:46:38;;;;;;;4.90;3.00;;;;;;;;;;107399;1254;61354;-83
2023/07/19 12:49:05;;;;;;;;;;;;;;;;;;107189;1250;59277;-82
2023/07/19 12:51:31;;;;;;;5.50;3.10;;;;;;;;;;107175;1250;61331;-83
2023/07/19 12:53:59;;;;;;;5.90;3.20;;;;;;;;;;107207;1249;61322;-83
2023/07/19 12:56:25;;;;;;;7.40;3.30;;;;;;;;;;107365;1254;61834;-83
2023/07/19 12:58:52;;;;;;;6.50;3.50;;;;;;;;;;107365;1254;61340;-84
2023/07/19 13:01:18;;;;;;;7.30;3.50;;;;;;;;;;107244;1249;61298;-82
2023/07/19 13:03:45;;;;;;;5.70;3.60;;;;;;;;;;107295;1250;61550;-83
2023/07/19 13:06:11;;;;;;;8.90;3.70;;;;;;;;;;107330;1255;61432;-82
2023/07/19 13:08:39;;;;;;;11.20;3.10;;;;;;;;;;107493;1254;61758;-83
2023/07/19 13:11:06;;;;;;;6.90;3.50;;;;;;;;;;107544;1250;61353;-82
2023/07/19 13:13:33;;;;;;;6.50;3.80;;;;;;;;;;107229;1249;61182;-81
2023/07/19 13:15:59;;;;;;;6.20;3.60;;;;;;;;;;107475;1254;61331;-84
2023/07/19 13:18:27;;;;;;;7.00;4.10;;;;;;;;;;107598;1249;61221;-83
2023/07/19 13:20:54;;;;;;;5.50;3.70;;;;;;;;;;107667;1251;61213;-81
2023/07/19 13:23:20;;;;;;;7.20;3.10;;;;;;;;;;107855;1250;61430;-82
2023/07/19 13:25:47;;;;;;;9.20;3.80;;;;;;;;;;107644;1249;61218;-81
2023/07/19 13:28:13;;;;;;;8.40;3.20;;;;;;;;;;108146;1250;61331;-79
2023/07/19 13:30:39;;;;;;;13.70;4.00;;;;;;;;;;107793;1250;59637;-79
2023/07/19 13:33:06;;;;;;;5.60;3.50;;;;;;;;;;107590;1250;61290;-76
2023/07/19 13:35:32;;;;;;;5.30;3.00;;;;;;;;;;106927;1249;61251;-78
2023/07/19 13:37:59;;;;;;;11.20;3.60;;;;;;;;;;107010;1250;61254;-81
2023/07/19 13:40:25;;;;;;;5.10;3.70;;;;;;;;;;107645;1249;61254;-84
2023/07/19 13:42:52;;;;;;;4.90;2.90;;;;;;;;;;107569;1251;61329;-84
2023/07/19 13:45:18;;;;;;;4.50;3.30;;;;;;;;;;107536;1251;61342;-82
2023/07/19 13:47:44;;;;;;;8.70;3.60;;;;;;;;;;107845;1254;61269;-86
2023/07/19 13:50:11;;;;;;;8.50;3.20;;;;;;;;;;107582;1250;61341;-84
2023/07/19 13:52:37;;;;;;;8.00;2.90;;;;;;;;;;107560;1250;61961;-83
2023/07/19 13:55:05;;;;;;;5.30;3.30;;;;;;;;;;107652;1249;61254;-81
2023/07/19 13:57:31;;;;;;;3.90;2.80;;;;;;;;;;108134;1254;61151;-82
2023/07/19 13:59:57;;;;;;;5.00;3.10;;;;;;;;;;108041;1249;61109;-78
2023/07/19 14:02:24;;;;;;;4.00;2.50;;;;;;;;;;107934;1249;61279;-82
2023/07/19 14:04:50;;;;;;;7.20;3.30;;;;;;;;;;108146;1251;61306;-79
2023/07/19 14:07:17;;;;;;;9.90;3.00;;;;;;;;;;108149;1249;61198;-79
2023/07/19 14:09:43;;;;;;;6.40;2.80;;;;;;;;;;107925;1250;61345;-80
2023/07/19 14:12:09;;;;;;;6.90;3.40;;;;;;;;;;107595;1250;61363;-84
2023/07/19 14:14:36;;;;;;;3.80;3.10;;;;;;;;;;107672;1250;61378;-77
2023/07/19 14:17:02;;;;;;;4.50;3.20;;;;;;;;;;107766;1249;61350;-77
2023/07/19 14:19:29;;;;;;;5.20;3.30;;;;;;;;;;107642;1253;61732;-77
2023/07/19 14:21:55;;;;;;;4.30;3.30;;;;;;;;;;106861;1250;62004;-80
2023/07/19 14:24:21;;;;;;;4.50;3.10;;;;;;;;;;107708;1249;61155;-78
2023/07/19 14:26:48;;;;;;;5.80;3.60;;;;;;;;;;108118;1250;61307;-77